Time;durP1;ratioP1;P1;durP2;ratioP2;P2;SDS_P1;SDS_P2;PMS_P1;PMS_P2;Temp;Humidity;BMP_temperature;BMP_pressure;BME280_temperature;BME280_humidity;BME280_pressure;Samples;Min_cycle;Max_cycle;Signal;HPM_P1;HPM_P2
2021/07/24 00:00:59;;;;;;;3.60;3.30;;;;;;;19.80;56.90;99535.78;6209597;23;20020;-76
2021/07/24 00:03:27;;;;;;;3.70;3.10;;;;;;;19.85;56.93;99552.22;6206370;23;20075;-76
2021/07/24 00:05:53;;;;;;;3.13;2.92;;;;;;;19.80;57.34;99553.28;6205607;23;20004;-75
2021/07/24 00:08:19;;;;;;;3.40;3.17;;;;;;;19.78;56.77;99568.59;6200469;23;20011;-74
2021/07/24 00:10:44;;;;;;;4.75;3.03;;;;;;;19.76;57.13;99590.34;6198707;23;20008;-75
2021/07/24 00:13:10;;;;;;;3.17;2.78;;;;;;;19.65;57.16;99601.88;6175560;23;20088;-76
2021/07/24 00:15:36;;;;;;;5.68;3.58;;;;;;;19.66;57.13;99617.38;6175163;23;20012;-76
2021/07/24 00:18:01;;;;;;;3.72;3.40;;;;;;;19.68;57.10;99648.38;6201562;23;20004;-76
2021/07/24 00:20:28;;;;;;;3.97;3.72;;;;;;;19.57;57.59;99683.25;6175584;23;20019;-76
2021/07/24 00:23:00;;;;;;;5.55;4.68;;;;;;;19.43;58.02;99716.03;6198691;23;20424;-78
2021/07/24 00:25:30;;;;;;;5.20;4.85;;;;;;;19.21;58.54;99720.81;6222352;23;20027;-76
2021/07/24 00:27:56;;;;;;;4.60;4.30;;;;;;;18.98;58.36;99715.66;6176441;23;20012;-77
2021/07/24 00:30:22;;;;;;;3.67;3.47;;;;;;;18.95;59.20;99740.44;6228249;23;20024;-76
2021/07/24 00:32:47;;;;;;;4.30;3.95;;;;;;;18.92;59.08;99739.16;6175393;23;20015;-77
2021/07/24 00:35:18;;;;;;;4.80;4.50;;;;;;;18.87;59.61;99725.53;6177290;23;20079;-79
2021/07/24 00:37:48;;;;;;;3.63;3.42;;;;;;;18.94;59.15;99720.25;6175900;23;20032;-77
2021/07/24 00:40:23;;;;;;;3.17;2.97;;;;;;;18.90;59.02;99694.38;6203301;23;20009;-79
2021/07/24 00:42:51;;;;;;;3.35;3.10;;;;;;;19.04;59.25;99720.97;6201979;23;20147;-75
2021/07/24 00:45:20;;;;;;;3.33;3.15;;;;;;;19.05;59.24;99728.16;6225126;23;20014;-75
2021/07/24 00:47:49;;;;;;;5.05;4.75;;;;;;;19.01;59.21;99694.75;6224104;23;20019;-74
2021/07/24 00:50:16;;;;;;;3.78;3.58;;;;;;;19.13;58.85;99680.16;6225057;23;20072;-74
2021/07/24 00:52:42;;;;;;;3.70;3.58;;;;;;;19.14;59.01;99676.22;6195672;23;20008;-75
2021/07/24 00:55:11;;;;;;;4.03;3.83;;;;;;;19.20;58.50;99666.53;6231514;22;20026;-76
2021/07/24 00:57:37;;;;;;;2.90;2.70;;;;;;;19.26;58.86;99672.66;6253503;23;20006;-75
2021/07/24 01:00:07;;;;;;;3.05;2.85;;;;;;;19.30;58.72;99662.50;6255825;23;20023;-76
2021/07/24 01:02:32;;;;;;;6.72;4.18;;;;;;;19.32;59.16;99649.94;6211240;23;20012;-76
2021/07/24 01:05:01;;;;;;;4.57;4.28;;;;;;;19.34;58.84;99616.31;6240969;23;20065;-76
2021/07/24 01:07:26;;;;;;;4.38;4.15;;;;;;;19.38;59.29;99595.09;6268130;23;20030;-76
2021/07/24 01:09:52;;;;;;;5.00;4.50;;;;;;;19.39;59.34;99587.56;6258081;23;20028;-76
2021/07/24 01:12:18;;;;;;;3.78;3.47;;;;;;;19.40;58.98;99605.81;6228954;23;20034;-77
2021/07/24 01:14:43;;;;;;;2.70;2.60;;;;;;;19.43;59.22;99627.31;6257075;23;20001;-76
2021/07/24 01:17:09;;;;;;;1.83;1.73;;;;;;;19.38;59.17;99646.94;6229225;23;20196;-77
2021/07/24 01:19:34;;;;;;;3.75;2.47;;;;;;;19.39;58.92;99676.28;6230866;23;20720;-74
2021/07/24 01:22:00;;;;;;;1.63;1.52;;;;;;;19.30;58.94;99668.88;6257876;23;20004;-76
2021/07/24 01:24:40;;;;;;;2.00;1.90;;;;;;;19.28;59.48;99651.78;6232416;23;19996;-76
2021/07/24 01:27:11;;;;;;;2.30;2.20;;;;;;;19.26;59.13;99648.53;6214352;23;20056;-74
2021/07/24 01:29:57;;;;;;;1.73;1.63;;;;;;;19.24;58.76;99659.16;6253653;23;20082;-74
2021/07/24 01:32:22;;;;;;;1.60;1.50;;;;;;;19.15;59.58;99633.50;6231654;23;20004;-73
2021/07/24 01:34:48;;;;;;;1.92;1.83;;;;;;;19.16;59.49;99635.13;6205866;23;20422;-75
2021/07/24 01:37:15;;;;;;;1.63;1.52;;;;;;;19.15;59.59;99633.50;6181071;23;20012;-75
2021/07/24 01:39:44;;;;;;;1.83;1.73;;;;;;;19.17;59.22;99647.81;6201532;23;20012;-75
2021/07/24 01:42:53;;;;;;;0.85;0.85;;;;;;;19.11;59.67;99627.81;6201200;23;20015;-74
2021/07/24 01:45:34;;;;;;;2.50;2.40;;;;;;;19.11;59.93;99638.91;6256499;23;20000;-74
2021/07/24 01:48:01;;;;;;;2.00;1.90;;;;;;;19.07;59.73;99624.16;6230078;23;20531;-75
2021/07/24 01:53:18;;;;;;;4.07;2.53;;;;;;;19.05;60.54;99614.56;6257407;23;20011;-73
2021/07/24 01:55:52;;;;;;;2.67;2.47;;;;;;;18.98;60.28;99617.88;6249159;22;20020;-75
2021/07/24 01:58:23;;;;;;;2.30;2.20;;;;;;;18.85;60.54;99605.91;6224394;23;20016;-74
2021/07/24 02:00:49;;;;;;;1.40;1.40;;;;;;;18.79;61.13;99596.19;6203301;23;20019;-75
2021/07/24 02:03:38;;;;;;;1.77;1.67;;;;;;;18.73;60.99;99587.28;6229681;23;20015;-74
2021/07/24 02:06:10;;;;;;;2.40;2.30;;;;;;;18.73;61.44;99614.19;6251830;23;20012;-75
2021/07/24 02:08:46;;;;;;;2.00;1.90;;;;;;;18.71;61.61;99599.88;6224829;23;20070;-75
2021/07/24 02:15:07;;;;;;;;;;;;;;;;;;;;;
2021/07/24 02:17:22;;;;;;;3.17;2.97;;;;;;;18.41;62.44;99556.53;6208668;23;20028;-75
2021/07/24 02:19:49;;;;;;;8.25;3.00;;;;;;;18.57;62.64;99595.44;6199643;23;20436;-75
2021/07/24 02:22:14;;;;;;;2.65;2.45;;;;;;;18.38;62.17;99567.44;6225022;23;20043;-76
2021/07/24 02:24:43;;;;;;;2.45;1.58;;;;;;;18.45;62.76;99607.25;6206661;23;20426;-75
2021/07/24 02:27:09;;;;;;;1.25;1.25;;;;;;;18.27;62.33;99595.53;6259716;23;20071;-76
2021/07/24 02:29:42;;;;;;;2.47;2.30;;;;;;;18.43;62.71;99619.84;6261581;23;20006;-76
2021/07/24 02:32:34;;;;;;;;;;;;;;;;;;;;;
2021/07/24 02:35:26;;;;;;;1.95;1.85;;;;;;;18.24;63.18;99584.34;6260987;23;20007;-75
2021/07/24 02:37:54;;;;;;;2.10;2.00;;;;;;;18.24;63.45;99585.16;6193217;23;20043;-75
2021/07/24 02:40:21;;;;;;;3.50;3.25;;;;;;;18.20;63.78;99595.28;6234339;23;20000;-74
2021/07/24 02:42:59;;;;;;;4.00;2.92;;;;;;;18.08;64.31;99600.75;6233380;23;20069;-75
2021/07/24 02:45:55;;;;;;;2.00;1.90;;;;;;;18.12;64.36;99626.56;6232109;23;20022;-76
2021/07/24 02:48:58;;;;;;;;;;;;;;;;;;;;;
2021/07/24 02:51:34;;;;;;;2.00;1.90;;;;;;;18.11;64.03;99624.97;6233724;23;20014;-74
2021/07/24 02:54:08;;;;;;;1.30;1.30;;;;;;;18.12;63.82;99621.03;6211229;23;19984;-75
2021/07/24 02:57:04;;;;;;;1.67;1.57;;;;;;;18.01;64.35;99589.41;6212608;23;20015;-76
2021/07/24 02:59:38;;;;;;;2.58;2.47;;;;;;;18.00;64.42;99585.00;6242114;23;20004;-76
2021/07/24 03:02:03;;;;;;;2.13;2.03;;;;;;;18.15;64.52;99614.84;6241977;23;20003;-78
2021/07/24 03:07:47;;;;;;;3.35;3.13;;;;;;;17.93;65.02;99569.78;6251950;23;20023;-73
2021/07/24 03:10:12;;;;;;;3.13;2.78;;;;;;;17.88;65.53;99575.44;6246766;23;20004;-75
2021/07/24 10:07:42;;;;;;;5.35;4.95;;;;;;;18.42;76.88;99562.88;5089037;27;1624518;-78
2021/07/24 10:10:10;;;;;;;4.93;4.63;;;;;;;18.95;76.20;99566.75;5124712;27;20130;-75
2021/07/24 10:12:40;;;;;;;7.68;4.10;;;;;;;19.27;74.93;99550.38;5115341;28;20457;-77
2021/07/24 10:15:14;;;;;;;5.30;4.78;;;;;;;19.71;73.67;99578.34;5124307;28;20027;-77
2021/07/24 10:17:40;;;;;;;5.72;5.18;;;;;;;19.89;72.37;99561.47;5133899;27;20043;-78
2021/07/24 10:20:06;;;;;;;4.60;4.40;;;;;;;20.12;71.65;99574.81;5089425;28;20156;-76
2021/07/24 10:22:32;;;;;;;5.47;5.18;;;;;;;20.21;71.05;99575.50;5139456;27;20047;-77
2021/07/24 10:24:58;;;;;;;5.03;4.60;;;;;;;20.26;70.97;99574.44;5133102;28;20024;-79
2021/07/24 10:27:32;;;;;;;5.25;4.90;;;;;;;20.24;70.12;99577.56;5115294;28;20024;-78
2021/07/24 10:30:03;;;;;;;3.97;3.78;;;;;;;20.21;70.12;99579.06;5133623;28;20020;-80
2021/07/24 10:32:33;;;;;;;4.20;3.90;;;;;;;20.18;69.49;99570.63;5134923;28;20020;-79
2021/07/24 10:34:59;;;;;;;5.03;4.60;;;;;;;20.13;69.45;99581.97;5124244;27;20054;-78
2021/07/24 10:37:32;;;;;;;4.13;3.92;;;;;;;20.11;69.51;99579.56;5106805;28;20055;-76
2021/07/24 10:40:17;;;;;;;4.15;3.90;;;;;;;20.11;69.28;99581.53;5113957;28;20020;-76
2021/07/24 10:42:48;;;;;;;3.22;3.03;;;;;;;20.08;69.32;99585.81;5132963;28;20026;-76
2021/07/24 10:45:31;;;;;;;3.40;3.15;;;;;;;20.14;69.55;99578.06;5130324;28;20066;-77
2021/07/24 10:48:15;;;;;;;8.52;4.28;;;;;;;20.18;69.71;99584.50;5132043;27;20038;-77
2021/07/24 10:50:50;;;;;;;4.57;4.28;;;;;;;20.24;69.34;99583.09;5129513;28;20043;-77
2021/07/24 10:53:15;;;;;;;4.63;4.32;;;;;;;20.35;69.16;99577.84;5127215;27;20028;-76
2021/07/24 10:55:43;;;;;;;4.10;3.88;;;;;;;20.50;69.37;99581.84;5117369;28;20026;-77
2021/07/24 10:58:09;;;;;;;5.45;5.00;;;;;;;20.65;68.99;99575.53;5128578;27;20031;-79
2021/07/24 11:00:40;;;;;;;3.08;2.88;;;;;;;20.80;69.15;99579.53;5098695;28;20027;-75
2021/07/24 11:03:29;;;;;;;3.70;3.35;;;;;;;21.05;68.62;99571.06;5116007;28;20050;-76
2021/07/24 11:05:55;;;;;;;4.10;3.72;;;;;;;21.16;68.23;99571.31;5117329;28;20040;-79
2021/07/24 11:09:07;;;;;;;2.67;2.58;;;;;;;21.33;67.68;99576.50;5124840;28;20095;-78
2021/07/24 11:18:58;;;;;;;5.70;4.30;;;;;;;23.12;66.60;99550.88;5035284;28;20056;-75
2021/07/24 11:22:17;;;;;;;4.35;3.72;;;;;;;23.61;64.47;99565.19;5078298;28;20040;-73
2021/07/24 11:24:43;;;;;;;3.95;3.75;;;;;;;23.39;63.47;99558.47;5105857;28;20020;-77
2021/07/24 11:27:11;;;;;;;7.30;4.28;;;;;;;23.26;62.82;99550.31;5111170;27;20068;-77
2021/07/24 11:29:41;;;;;;;4.30;3.70;;;;;;;23.39;62.63;99570.44;5111098;28;20027;-77
2021/07/24 11:32:08;;;;;;;4.40;4.07;;;;;;;23.36;62.54;99562.81;5086244;28;20056;-73
2021/07/24 11:34:35;;;;;;;5.47;4.93;;;;;;;23.49;62.22;99572.59;5099343;28;20039;-75
2021/07/24 11:43:59;;;;;;;3.30;3.10;;;;;;;23.24;61.90;99569.41;5126822;28;20019;-75
2021/07/24 11:50:49;;;;;;;;;;;;;;;;;;;;;
2021/07/24 11:53:28;;;;;;;3.58;3.35;;;;;;;22.99;61.63;99580.09;5124927;28;20082;-76
2021/07/24 12:06:13;;;;;;;3.33;3.22;;;;;;;22.62;61.52;99583.41;4994275;28;20520;-73
2021/07/24 12:08:44;;;;;;;3.05;2.85;;;;;;;22.57;61.61;99594.81;5003745;28;20048;-74
2021/07/24 12:11:15;;;;;;;2.60;2.50;;;;;;;22.51;61.78;99599.09;5100506;28;20031;-77
2021/07/24 12:13:42;;;;;;;2.80;2.70;;;;;;;22.43;61.65;99598.94;5105008;28;20473;-76
2021/07/24 12:16:08;;;;;;;5.18;4.03;;;;;;;22.29;62.03;99599.41;5099675;28;20042;-76
2021/07/24 12:18:50;;;;;;;6.70;3.28;;;;;;;22.21;62.47;99591.25;5096352;28;20050;-76
2021/07/24 12:21:23;;;;;;;4.72;3.38;;;;;;;22.22;62.88;99587.31;5097723;28;20024;-76
2021/07/24 12:24:00;;;;;;;2.35;2.25;;;;;;;22.40;63.22;99596.88;5097647;28;20027;-75
2021/07/24 12:26:33;;;;;;;3.35;3.15;;;;;;;22.58;62.75;99593.66;5102152;28;20101;-74
2021/07/24 12:29:18;;;;;;;3.20;3.10;;;;;;;22.83;62.32;99594.94;5099712;28;20020;-76
2021/07/24 12:31:48;;;;;;;2.08;1.98;;;;;;;22.98;61.94;99595.19;5095918;28;20024;-76
2021/07/24 12:34:15;;;;;;;2.45;2.30;;;;;;;23.10;61.44;99592.28;5087821;28;20035;-75
2021/07/24 12:36:57;;;;;;;4.10;3.72;;;;;;;23.24;61.42;99596.50;5099846;28;20020;-75
2021/07/24 12:39:25;;;;;;;4.10;2.58;;;;;;;23.29;61.07;99588.63;5082153;28;20036;-76
2021/07/24 12:42:02;;;;;;;1.40;1.40;;;;;;;23.46;61.35;99590.06;5095938;28;20092;-76
2021/07/24 12:44:29;;;;;;;1.60;1.50;;;;;;;23.55;60.95;99578.66;5099635;28;20031;-76
2021/07/24 12:47:14;;;;;;;2.30;2.20;;;;;;;23.69;60.38;99578.09;5091227;28;20028;-76
2021/07/24 12:54:04;;;;;;;;;;;;;;;;;;;;;
2021/07/24 12:56:20;;;;;;;1.23;1.23;;;;;;;23.99;59.53;99582.91;5003447;28;20084;-77
2021/07/24 12:59:09;;;;;;;1.60;1.60;;;;;;;24.03;59.44;99559.47;5092935;28;20542;-77
2021/07/24 13:02:15;;;;;;;1.73;1.60;;;;;;;24.43;59.29;99570.31;5100536;28;20032;-77
2021/07/24 13:04:58;;;;;;;1.02;1.02;;;;;;;24.51;58.43;99553.25;5071828;28;20028;-76
2021/07/24 13:07:52;;;;;;;1.50;1.40;;;;;;;24.83;57.63;99583.56;5071142;28;20068;-75
2021/07/24 13:10:57;;;;;;;1.83;1.73;;;;;;;24.73;56.55;99578.66;5065293;28;20976;-77
2021/07/24 13:32:33;;;;;;;;;;;;;;;;;;;;;
2021/07/24 13:36:27;;;;;;;;;;;;;;;;;;;;;
2021/07/24 13:43:04;;;;;;;;;;;;;;;;;;;;;
2021/07/24 13:46:35;;;;;;;1.52;1.42;;;;;;;27.45;52.01;99588.19;4809307;29;20136;-75
2021/07/24 13:53:29;;;;;;;;;;;;;;;;;;;;;
2021/07/24 14:03:09;;;;;;;3.47;1.45;;;;;;;30.18;44.58;99585.09;4918130;28;20041;-77
2021/07/24 14:13:00;;;;;;;0.88;0.88;;;;;;;29.36;45.45;99599.53;5091839;28;20051;-76
2021/07/24 14:36:20;;;;;;;2.60;2.47;;;;;;;28.97;44.38;99578.09;4931925;29;20059;-74
2021/07/24 14:38:45;;;;;;;2.75;2.55;;;;;;;29.27;44.65;99595.59;4952054;28;20085;-75
2021/07/24 14:41:11;;;;;;;1.48;1.38;;;;;;;29.86;45.51;99597.50;5072176;28;20036;-75
2021/07/24 14:44:11;;;;;;;2.45;2.35;;;;;;;30.63;44.12;99596.22;5095837;28;20028;-73
2021/07/24 14:46:37;;;;;;;2.03;1.92;;;;;;;31.00;42.97;99583.22;5100688;28;20040;-76
2021/07/24 14:49:06;;;;;;;2.15;2.05;;;;;;;31.73;42.51;99563.91;5087910;28;20105;-76
2021/07/24 14:55:04;;;;;;;1.60;1.50;;;;;;;33.15;39.50;99583.16;5007321;28;20045;-76
2021/07/24 14:58:43;;;;;;;1.40;1.35;;;;;;;33.28;38.65;99591.78;5016014;28;21419;-76
2021/07/24 15:01:36;;;;;;;2.83;2.63;;;;;;;32.45;37.66;99582.28;4959739;28;20031;-74
2021/07/24 15:08:00;;;;;;;2.55;2.45;;;;;;;31.61;38.86;99587.91;4999787;28;20073;-73
2021/07/24 15:10:26;;;;;;;3.00;2.80;;;;;;;31.19;38.92;99578.09;4985386;28;20500;-73
2021/07/24 15:12:53;;;;;;;3.20;3.00;;;;;;;31.07;39.36;99588.75;5031963;28;20457;-75
2021/07/24 15:15:19;;;;;;;2.45;2.35;;;;;;;31.11;39.87;99589.50;5068041;28;20040;-75
2021/07/24 15:17:45;;;;;;;1.80;1.70;;;;;;;31.14;40.00;99585.81;5084849;28;20501;-75
2021/07/24 15:20:11;;;;;;;1.60;1.50;;;;;;;30.94;40.49;99585.72;5080692;28;20040;-76
2021/07/24 15:22:37;;;;;;;2.55;2.45;;;;;;;30.76;40.08;99585.97;5122782;28;20083;-78
2021/07/24 15:25:04;;;;;;;2.65;2.45;;;;;;;30.56;40.21;99583.03;5102239;27;20027;-73
2021/07/24 15:27:31;;;;;;;2.97;2.85;;;;;;;30.45;39.90;99585.97;5111172;27;20039;-75
2021/07/24 15:29:56;;;;;;;2.78;2.67;;;;;;;30.10;40.01;99579.53;5093690;28;20028;-73
2021/07/24 15:32:22;;;;;;;3.83;3.53;;;;;;;29.70;40.66;99586.75;5103722;28;20023;-73
2021/07/24 15:34:48;;;;;;;2.53;2.42;;;;;;;29.28;41.28;99580.28;5077585;28;20035;-73
2021/07/24 15:37:13;;;;;;;1.63;1.58;;;;;;;29.13;41.41;99573.97;5104180;28;20034;-71
2021/07/24 15:39:39;;;;;;;2.35;2.25;;;;;;;29.05;42.05;99571.19;5103808;28;20101;-74
2021/07/24 15:42:05;;;;;;;2.55;2.45;;;;;;;29.24;42.01;99580.34;5088876;28;20031;-73
2021/07/24 15:44:31;;;;;;;1.83;1.73;;;;;;;29.55;42.42;99558.72;5081346;28;20028;-73
2021/07/24 15:46:57;;;;;;;2.50;2.35;;;;;;;30.21;42.35;99556.03;5093065;28;20068;-72
2021/07/24 15:49:22;;;;;;;1.95;1.70;;;;;;;31.16;41.89;99551.50;5117712;28;20053;-71
2021/07/24 15:51:49;;;;;;;2.10;2.00;;;;;;;31.85;39.72;99557.59;5086767;28;20039;-72
2021/07/24 15:54:15;;;;;;;2.03;1.92;;;;;;;32.86;39.40;99555.50;5086107;28;20047;-75
2021/07/24 15:56:45;;;;;;;2.28;2.08;;;;;;;33.73;37.49;99553.34;5081361;28;20101;-76
2021/07/24 15:59:13;;;;;;;2.13;2.03;;;;;;;33.74;35.99;99552.94;5075245;28;20040;-75
2021/07/24 16:01:45;;;;;;;2.08;1.98;;;;;;;33.42;35.55;99559.44;5086193;28;20073;-79
2021/07/24 16:04:11;;;;;;;2.38;2.28;;;;;;;32.98;35.50;99550.38;5087361;28;20032;-78
2021/07/24 16:06:37;;;;;;;1.80;1.70;;;;;;;32.63;36.46;99536.59;5088613;28;20451;-77
2021/07/24 16:09:03;;;;;;;1.67;1.58;;;;;;;32.81;36.82;99536.22;5081384;28;20039;-78
2021/07/24 16:11:29;;;;;;;2.17;1.88;;;;;;;33.16;35.82;99542.25;5086297;28;20032;-77
2021/07/24 16:13:56;;;;;;;2.80;1.48;;;;;;;33.05;35.25;99533.22;5094124;28;20097;-77
2021/07/24 16:16:23;;;;;;;2.30;2.20;;;;;;;32.67;34.84;99530.91;5079847;28;20114;-76
2021/07/24 16:18:49;;;;;;;2.40;2.30;;;;;;;32.41;36.13;99529.84;5101725;28;20042;-75
2021/07/24 16:21:19;;;;;;;1.65;1.55;;;;;;;32.73;37.02;99542.50;5095113;28;20106;-77
2021/07/24 16:23:45;;;;;;;1.83;1.73;;;;;;;33.70;36.51;99554.25;5102226;28;20020;-79
2021/07/24 16:26:10;;;;;;;1.38;1.27;;;;;;;34.23;35.46;99551.97;5085790;28;20042;-76
2021/07/24 16:28:37;;;;;;;1.63;1.52;;;;;;;34.13;34.87;99544.56;5123774;28;20049;-76
2021/07/24 16:31:03;;;;;;;1.35;1.35;;;;;;;34.29;34.25;99546.56;5089423;28;20120;-76
2021/07/24 16:33:29;;;;;;;2.75;2.55;;;;;;;34.07;33.53;99546.38;5123805;28;20027;-76
2021/07/24 16:35:57;;;;;;;1.80;1.70;;;;;;;33.71;33.74;99550.97;5116944;28;20355;-77
2021/07/24 16:38:23;;;;;;;2.30;2.20;;;;;;;33.26;33.71;99548.91;5089577;28;20032;-77
2021/07/24 16:40:49;;;;;;;1.15;1.15;;;;;;;32.95;34.06;99542.78;5102467;28;20034;-76
2021/07/24 16:43:14;;;;;;;1.67;1.58;;;;;;;32.95;34.82;99539.94;5086354;28;20019;-75
2021/07/24 16:45:40;;;;;;;0.80;0.80;;;;;;;33.48;35.25;99543.47;5101247;28;20009;-76
2021/07/24 16:48:06;;;;;;;1.20;1.20;;;;;;;33.85;34.85;99532.81;5102589;28;20024;-78
2021/07/24 16:50:34;;;;;;;1.65;1.60;;;;;;;34.06;34.51;99539.09;5096716;28;20023;-76
2021/07/24 16:52:59;;;;;;;2.03;1.88;;;;;;;34.37;34.38;99549.97;5114315;28;20030;-79
2021/07/24 16:55:25;;;;;;;3.10;1.77;;;;;;;34.32;33.41;99539.22;5084318;28;20032;-77
2021/07/24 16:57:51;;;;;;;1.10;1.10;;;;;;;34.30;33.54;99527.50;5100891;28;20079;-78
2021/07/24 17:00:17;;;;;;;1.20;1.10;;;;;;;34.14;33.82;99517.81;5069545;28;20102;-77
2021/07/24 17:02:43;;;;;;;1.13;1.13;;;;;;;33.86;33.30;99516.59;5082120;28;20477;-77
2021/07/24 17:05:10;;;;;;;1.50;1.38;;;;;;;33.76;33.67;99535.47;5084825;28;20042;-77
2021/07/24 17:07:40;;;;;;;1.40;1.30;;;;;;;33.61;33.77;99528.59;5071412;28;20166;-76
2021/07/24 17:10:06;;;;;;;1.73;1.63;;;;;;;33.48;33.77;99517.97;5102474;28;20369;-77
2021/07/24 17:12:31;;;;;;;1.38;1.30;;;;;;;33.78;34.58;99527.34;5066713;28;20024;-76
2021/07/24 17:14:57;;;;;;;1.58;1.48;;;;;;;34.33;34.61;99515.25;5083883;28;20055;-77
2021/07/24 17:17:22;;;;;;;1.98;1.60;;;;;;;34.42;33.85;99526.75;5071221;28;20091;-76
2021/07/24 17:19:48;;;;;;;2.28;1.52;;;;;;;33.83;33.85;99523.94;5077763;28;20035;-76
2021/07/24 17:22:13;;;;;;;1.80;1.70;;;;;;;33.09;34.21;99522.63;5080634;28;20031;-77
2021/07/24 17:24:41;;;;;;;1.70;1.38;;;;;;;32.28;34.87;99522.00;5086098;28;20019;-77
2021/07/24 17:27:07;;;;;;;1.80;1.70;;;;;;;31.41;36.44;99517.22;5099787;28;20036;-77
2021/07/24 17:29:37;;;;;;;3.35;3.03;;;;;;;30.68;37.55;99525.25;5086608;28;20028;-79
2021/07/24 17:32:16;;;;;;;2.35;2.25;;;;;;;29.84;38.28;99504.94;5071914;28;20031;-76
2021/07/24 17:34:50;;;;;;;4.32;4.03;;;;;;;29.32;38.93;99517.13;5082772;28;20107;-78
2021/07/24 17:37:40;;;;;;;5.82;5.40;;;;;;;28.85;40.01;99508.25;5093743;28;20031;-78
2021/07/24 17:40:07;;;;;;;4.25;4.05;;;;;;;28.23;40.66;99476.06;5079979;28;20036;-79
2021/07/24 17:42:33;;;;;;;3.25;3.15;;;;;;;28.07;41.33;99516.69;5105041;28;20008;-76
2021/07/24 17:45:04;;;;;;;3.30;3.10;;;;;;;27.67;42.45;99494.31;5086775;28;20054;-77
2021/07/24 17:47:49;;;;;;;;;;;;;;;;;;;;;
2021/07/24 17:50:15;;;;;;;2.53;2.42;;;;;;;26.93;44.69;99487.56;5086085;28;20103;-76
2021/07/24 17:52:43;;;;;;;2.60;2.30;;;;;;;26.77;44.94;99487.97;5087785;28;20062;-75
2021/07/24 17:55:09;;;;;;;3.13;2.20;;;;;;;26.54;44.62;99496.72;5099506;28;20462;-75
2021/07/24 17:57:39;;;;;;;2.67;2.58;;;;;;;26.26;45.56;99510.25;5080174;28;20038;-76
2021/07/24 18:00:19;;;;;;;2.00;1.90;;;;;;;25.87;46.28;99498.84;5097676;28;20063;-75
2021/07/24 18:03:08;;;;;;;1.60;1.50;;;;;;;25.64;45.75;99485.13;5080022;28;20102;-78
2021/07/24 18:05:59;;;;;;;1.35;1.25;;;;;;;25.44;45.59;99493.81;5096972;28;20016;-76
2021/07/24 18:08:37;;;;;;;1.20;1.20;;;;;;;25.15;46.90;99476.00;5089190;28;20035;-77
2021/07/24 18:11:11;;;;;;;0.68;0.68;;;;;;;24.99;47.01;99485.47;5099395;28;20050;-78
2021/07/24 18:13:58;;;;;;;1.20;1.20;;;;;;;24.67;47.73;99463.59;5098573;28;20055;-75
2021/07/24 18:16:39;;;;;;;1.30;1.13;;;;;;;24.57;47.53;99481.06;5105408;28;20067;-78
2021/07/24 18:19:19;;;;;;;0.98;0.98;;;;;;;24.48;48.72;99484.16;5120996;28;20149;-75
2021/07/24 18:21:47;;;;;;;1.58;1.58;;;;;;;24.28;48.55;99471.56;5090811;28;20024;-76
2021/07/24 18:24:13;;;;;;;0.90;0.90;;;;;;;24.03;49.57;99458.94;5084633;28;20489;-76
2021/07/24 18:30:27;;;;;;;;;;;;;;;;;;;;;
2021/07/24 18:32:54;;;;;;;0.55;0.55;;;;;;;23.64;49.63;99467.59;5106016;28;20442;-76
2021/07/24 18:35:28;;;;;;;0.70;0.70;;;;;;;23.73;50.13;99491.59;5111357;28;20027;-80
2021/07/24 18:37:56;;;;;;;1.05;1.05;;;;;;;23.71;50.77;99503.16;5116697;28;20038;-75
2021/07/24 18:40:21;;;;;;;0.80;0.73;;;;;;;23.67;51.04;99503.09;5074792;28;20474;-80
2021/07/24 18:42:47;;;;;;;0.45;0.45;;;;;;;23.65;50.41;99501.88;5100091;28;20044;-78
2021/07/24 18:45:13;;;;;;;0.47;0.47;;;;;;;23.72;50.88;99506.75;5104702;28;20433;-77
2021/07/24 18:47:39;;;;;;;0.28;0.28;;;;;;;23.75;50.56;99498.41;5119614;28;20027;-74
2021/07/24 18:50:05;;;;;;;0.40;0.40;;;;;;;23.83;51.08;99508.50;5103481;28;20027;-73
2021/07/24 18:52:31;;;;;;;0.52;0.30;;;;;;;23.84;50.58;99501.72;5114124;28;20033;-77
2021/07/24 18:54:56;;;;;;;0.30;0.30;;;;;;;23.84;50.45;99496.16;5076505;28;20032;-74
2021/07/24 18:57:22;;;;;;;0.40;0.40;;;;;;;23.78;50.68;99492.06;5084103;28;20032;-73
2021/07/24 18:59:47;;;;;;;0.20;0.20;;;;;;;23.79;50.56;99502.06;5084234;28;20066;-73
2021/07/24 19:02:13;;;;;;;0.17;0.17;;;;;;;23.74;50.48;99501.59;5082778;28;20035;-74
2021/07/24 19:04:38;;;;;;;0.10;0.10;;;;;;;23.65;50.81;99496.28;5075269;28;20024;-74
2021/07/24 19:07:04;;;;;;;0.28;0.28;;;;;;;23.58;50.87;99498.97;5094521;28;20065;-75
2021/07/24 19:09:29;;;;;;;0.28;0.28;;;;;;;23.53;50.89;99508.47;5107260;28;20024;-74
2021/07/24 19:11:55;;;;;;;0.20;0.20;;;;;;;23.39;50.77;99497.91;5115347;28;20020;-73
2021/07/24 19:14:25;;;;;;;0.10;0.10;;;;;;;23.37;51.29;99511.44;5100972;28;20048;-75
2021/07/24 19:16:51;;;;;;;0.10;0.10;;;;;;;23.30;51.60;99503.75;5105259;28;20032;-74
2021/07/24 19:19:17;;;;;;;0.20;0.20;;;;;;;23.17;51.58;99496.78;5072603;28;20051;-75
2021/07/24 19:21:42;;;;;;;0.10;0.10;;;;;;;23.09;51.35;99490.25;5067774;28;20028;-75
2021/07/24 19:24:11;;;;;;;0.10;0.10;;;;;;;23.07;51.48;99497.38;5098361;28;20362;-74
2021/07/24 19:26:36;;;;;;;0.22;0.20;;;;;;;22.98;51.82;99500.41;5103258;28;20046;-74
2021/07/24 19:29:02;;;;;;;0.30;0.30;;;;;;;22.88;52.18;99487.09;5088269;28;20065;-74
2021/07/24 19:31:27;;;;;;;0.30;0.20;;;;;;;22.78;52.38;99486.56;5109804;28;20032;-74
2021/07/24 19:33:54;;;;;;;0.20;0.20;;;;;;;22.68;52.38;99487.19;5105412;28;20027;-75
2021/07/24 19:37:02;;;;;;;0.30;0.30;;;;;;;22.53;52.77;99479.72;5081552;28;20026;-74
2021/07/24 19:39:35;;;;;;;0.20;0.10;;;;;;;22.43;52.99;99481.94;5078175;28;20035;-75
2021/07/24 19:42:43;;;;;;;0.20;0.20;;;;;;;22.29;53.11;99479.66;5083869;28;20028;-77
2021/07/24 19:45:48;;;;;;;;;;;;;;;;;;;;;
2021/07/24 19:48:27;;;;;;;;;;;;;;;;;;;;;
2021/07/24 19:55:03;;;;;;;0.10;0.10;;;;;;;21.92;53.82;99490.47;5060557;28;20033;-77
2021/07/24 19:57:50;;;;;;;;;;;;;;;;;;;;;
2021/07/24 20:00:47;;;;;;;0.43;0.30;;;;;;;21.64;54.52;99477.56;5039293;28;20120;-75
2021/07/24 20:03:17;;;;;;;0.30;0.20;;;;;;;21.63;54.86;99495.41;5057416;28;20060;-75
2021/07/24 20:05:46;;;;;;;0.20;0.20;;;;;;;21.55;55.38;99490.84;5080807;28;20024;-77
2021/07/24 20:08:37;;;;;;;0.20;0.10;;;;;;;21.57;55.28;99497.66;5090380;28;20375;-76
2021/07/24 20:11:31;;;;;;;0.10;0.10;;;;;;;21.48;55.64;99507.34;5116778;28;20069;-76
2021/07/24 20:25:47;;;;;;;0.20;0.20;;;;;;;20.84;56.66;99488.75;4904653;29;20021;-81
2021/07/24 20:33:05;;;;;;;;;;;;;;;;;;;;;
2021/07/24 20:35:41;;;;;;;0.20;0.20;;;;;;;20.49;57.37;99499.72;4872816;29;20101;-78
2021/07/24 20:46:20;;;;;;;;;;;;;;;;;;;;;
2021/07/24 20:52:58;;;;;;;;;;;;;;;;;;;;;
2021/07/24 21:15:11;;;;;;;2.10;2.00;;;;;;;19.70;62.73;99551.75;3252241;26;20059;-79
2021/07/24 21:21:41;;;;;;;0.40;0.40;;;;;;;19.47;61.92;99539.53;4912391;29;20051;-81
2021/07/24 21:35:37;;;;;;;5.22;3.58;;;;;;;19.16;63.79;99529.84;4797781;29;20106;-80
2021/07/24 21:38:38;;;;;;;4.25;3.95;;;;;;;19.34;64.18;99558.91;4791120;29;20075;-77
2021/07/24 21:44:38;;;;;;;3.90;3.63;;;;;;;19.09;64.82;99512.97;4968534;28;20062;-76
2021/07/24 21:47:04;;;;;;;4.25;3.95;;;;;;;19.20;65.43;99539.03;4952028;28;20054;-75
2021/07/24 21:49:47;;;;;;;2.95;2.85;;;;;;;19.18;64.95;99544.94;5045241;28;20040;-77
2021/07/24 21:52:31;;;;;;;;;;;;;;;;;;;;;
2021/07/24 21:55:27;;;;;;;4.18;3.72;;;;;;;19.16;65.86;99546.47;5051947;28;20100;-79
2021/07/24 21:58:13;;;;;;;4.73;2.87;;;;;;;19.00;65.89;99516.66;5041840;28;20395;-77
2021/07/24 22:00:46;;;;;;;;;;;;;;;19.22;65.56;99545.06;5061421;28;20540;-75
2021/07/24 22:03:13;;;;;;;2.15;2.05;;;;;;;19.14;65.45;99540.44;5058228;28;19917;-75
2021/07/24 22:05:39;;;;;;;1.85;1.75;;;;;;;19.14;65.47;99540.44;5064894;28;20116;-74
2021/07/24 22:08:06;;;;;;;2.42;2.33;;;;;;;19.11;65.69;99543.91;5063907;28;20544;-75
2021/07/24 22:10:32;;;;;;;4.30;3.85;;;;;;;19.02;65.95;99530.94;5048921;28;20040;-75
2021/07/24 22:13:00;;;;;;;3.08;2.97;;;;;;;18.99;66.22;99541.94;5035840;28;20035;-80
2021/07/24 22:15:27;;;;;;;2.70;2.60;;;;;;;18.92;66.06;99536.94;5045574;28;20064;-76
2021/07/24 22:17:53;;;;;;;1.88;1.83;;;;;;;18.91;66.18;99540.88;5025881;28;20159;-78
2021/07/24 22:20:19;;;;;;;1.98;1.88;;;;;;;18.84;66.15;99527.56;5056817;28;20051;-76
2021/07/24 22:22:44;;;;;;;1.23;1.23;;;;;;;18.89;66.14;99537.63;5053137;28;20029;-77
2021/07/24 22:25:10;;;;;;;1.48;1.48;;;;;;;18.95;65.99;99546.53;5043287;28;20033;-78